Time,TemperatureF,DewpointF,PressureIn,WindDirection,WindDirectionDegrees,WindSpeedMPH,WindSpeedGustMPH,Humidity,HourlyPrecipIn,Conditions,Clouds,dailyrainin,SoftwareType,DateUTC
2014-07-11 00:01:00,67.1,17.9,29.26,NE,45,1.3,1.6,15,0.00,,,0.00,VWS V14.01,2014-07-11 04:01:00,
2014-07-11 00:06:00,67.1,17.9,29.26,NE,45,1.6,1.6,15,0.00,,,0.00,VWS V14.01,2014-07-11 04:06:00,
2014-07-11 00:11:00,66.9,17.8,29.26,NE,45,1.3,2.2,15,0.00,,,0.00,VWS V14.01,2014-07-11 04:11:00,
2014-07-11 00:16:00,66.9,17.8,29.23,NE,45,2.0,2.0,15,0.00,,,0.00,VWS V14.01,2014-07-11 04:16:00,
2014-07-11 00:21:00,66.9,17.8,29.23,NE,45,1.3,1.6,15,0.00,,,0.00,VWS V14.01,2014-07-11 04:21:00,
2014-07-11 00:26:00,66.9,17.8,29.23,NE,45,2.2,2.2,15,0.00,,,0.00,VWS V14.01,2014-07-11 04:26:00,
2014-07-11 00:31:00,66.7,17.6,29.23,NNE,22,2.0,2.0,15,0.00,,,0.00,VWS V14.01,2014-07-11 04:31:00,
2014-07-11 00:36:00,66.6,17.5,29.26,NE,45,1.6,1.6,15,0.00,,,0.00,VWS V14.01,2014-07-11 04:36:00,
2014-07-11 00:41:00,66.4,17.4,29.26,NNE,22,1.6,1.6,15,0.00,,,0.00,VWS V14.01,2014-07-11 04:41:00,
2014-07-11 00:46:00,66.2,17.2,29.26,NE,45,2.0,2.0,15,0.00,,,0.00,VWS V14.01,2014-07-11 04:46:00,
2014-07-11 00:51:00,66.0,17.1,29.26,NE,45,2.0,2.0,15,0.00,,,0.00,VWS V14.01,2014-07-11 04:51:00,
2014-07-11 00:56:00,66.0,17.1,29.26,NE,45,1.6,1.6,15,0.00,,,0.00,VWS V14.01,2014-07-11 04:56:00,
2014-07-11 01:01:00,65.8,16.9,29.26,NE,45,2.0,2.0,15,0.00,,,0.00,VWS V14.01,2014-07-11 05:01:00,
2014-07-11 01:06:00,65.8,16.9,29.26,NE,45,1.3,1.6,15,0.00,,,0.00,VWS V14.01,2014-07-11 05:06:00,
2014-07-11 01:11:00,65.7,16.8,29.26,NE,45,1.6,1.6,15,0.00,,,0.00,VWS V14.01,2014-07-11 05:11:00,
2014-07-11 01:16:00,65.5,16.6,29.26,NE,45,1.6,1.6,15,0.00,,,0.00,VWS V14.01,2014-07-11 05:16:00,
2014-07-11 01:21:00,65.5,16.6,29.26,NE,45,2.0,2.0,15,0.00,,,0.00,VWS V14.01,2014-07-11 05:21:00,
2014-07-11 01:26:00,65.3,16.5,29.26,NE,45,1.1,1.6,15,0.00,,,0.00,VWS V14.01,2014-07-11 05:26:00,
2014-07-11 01:31:00,65.3,16.5,29.26,NE,45,1.3,1.6,15,0.00,,,0.00,VWS V14.01,2014-07-11 05:31:00,
2014-07-11 01:36:00,65.1,16.4,29.26,NE,45,2.0,2.0,15,0.00,,,0.00,VWS V14.01,2014-07-11 05:36:00,
2014-07-11 01:41:00,64.9,16.2,29.26,NE,45,2.0,2.0,15,0.00,,,0.00,VWS V14.01,2014-07-11 05:41:00,
2014-07-11 01:46:00,64.9,16.2,29.26,NE,45,1.6,1.6,15,0.00,,,0.00,VWS V14.01,2014-07-11 05:46:00,
2014-07-11 01:51:00,64.9,16.2,29.26,NE,45,1.6,1.6,15,0.00,,,0.00,VWS V14.01,2014-07-11 05:51:00,
2014-07-11 01:56:00,64.9,16.2,29.26,NNE,22,2.0,2.2,15,0.00,,,0.00,VWS V14.01,2014-07-11 05:56:00,
2014-07-11 02:01:00,64.8,16.1,29.26,NNE,22,2.5,2.5,15,0.00,,,0.00,VWS V14.01,2014-07-11 06:01:00,
2014-07-11 02:06:00,64.8,16.1,29.26,NNE,22,2.2,2.2,15,0.00,,,0.00,VWS V14.01,2014-07-11 06:06:00,
2014-07-11 02:11:00,64.8,16.1,29.26,NNE,22,2.0,2.5,15,0.00,,,0.00,VWS V14.01,2014-07-11 06:11:00,
2014-07-11 02:16:00,64.6,15.9,29.26,NE,45,2.2,2.2,15,0.00,,,0.00,VWS V14.01,2014-07-11 06:16:00,
2014-07-11 02:21:00,64.6,15.9,29.26,NNE,22,2.0,2.5,15,0.00,,,0.00,VWS V14.01,2014-07-11 06:21:00,
2014-07-11 02:26:00,64.4,15.8,29.26,NNE,22,1.6,1.6,15,0.00,,,0.00,VWS V14.01,2014-07-11 06:26:00,
2014-07-11 02:31:00,64.4,15.8,29.26,NNE,22,2.5,2.5,15,0.00,,,0.00,VWS V14.01,2014-07-11 06:31:00,
2014-07-11 02:36:00,64.4,15.8,29.26,NNE,22,2.2,2.2,15,0.00,,,0.00,VWS V14.01,2014-07-11 06:36:00,
2014-07-11 02:41:00,64.4,15.8,29.26,NNE,22,2.0,2.2,15,0.00,,,0.00,VWS V14.01,2014-07-11 06:41:00,
2014-07-11 02:46:00,64.4,15.8,29.26,NNE,22,2.5,2.5,15,0.00,,,0.00,VWS V14.01,2014-07-11 06:46:00,
2014-07-11 02:51:00,64.2,17.1,29.26,NE,45,1.6,1.6,16,0.00,,,0.00,VWS V14.01,2014-07-11 06:51:00,
2014-07-11 02:56:00,64.0,17.0,29.26,NNE,22,2.2,2.2,16,0.00,,,0.00,VWS V14.01,2014-07-11 06:56:00,
2014-07-11 03:01:00,63.9,16.8,29.26,NNE,22,2.0,2.0,16,0.00,,,0.00,VWS V14.01,2014-07-11 07:01:00,
2014-07-11 03:06:00,63.9,16.8,29.29,NNE,22,2.5,2.5,16,0.00,,,0.00,VWS V14.01,2014-07-11 07:06:00,
2014-07-11 03:11:00,63.9,16.8,29.29,NE,45,2.2,2.5,16,0.00,,,0.00,VWS V14.01,2014-07-11 07:11:00,
2014-07-11 03:16:00,63.7,16.7,29.29,NE,45,2.7,2.7,16,0.00,,,0.00,VWS V14.01,2014-07-11 07:16:00,
2014-07-11 03:21:00,63.7,16.7,29.26,NNE,22,2.5,2.5,16,0.00,,,0.00,VWS V14.01,2014-07-11 07:21:00,
2014-07-11 03:26:00,63.7,16.7,29.26,NNE,22,2.5,2.7,16,0.00,,,0.00,VWS V14.01,2014-07-11 07:26:00,
2014-07-11 03:31:00,63.7,16.7,29.26,NE,45,2.2,2.2,16,0.00,,,0.00,VWS V14.01,2014-07-11 07:31:00,
2014-07-11 03:36:00,63.5,16.5,29.26,NNE,22,2.0,2.0,16,0.00,,,0.00,VWS V14.01,2014-07-11 07:36:00,
2014-07-11 03:41:00,63.5,16.5,29.26,NNE,22,2.2,2.2,16,0.00,,,0.00,VWS V14.01,2014-07-11 07:41:00,
2014-07-11 03:46:00,63.5,16.5,29.26,NNE,22,2.5,2.5,16,0.00,,,0.00,VWS V14.01,2014-07-11 07:46:00,
2014-07-11 03:51:00,63.5,16.5,29.26,NNE,22,2.5,2.5,16,0.00,,,0.00,VWS V14.01,2014-07-11 07:51:00,
2014-07-11 03:56:00,63.3,16.4,29.26,NNE,22,2.7,2.7,16,0.00,,,0.00,VWS V14.01,2014-07-11 07:56:00,
2014-07-11 04:01:00,63.1,16.2,29.26,NNE,22,2.7,2.7,16,0.00,,,0.00,VWS V14.01,2014-07-11 08:01:00,
2014-07-11 04:06:00,63.1,16.2,29.26,NNE,22,2.5,2.5,16,0.00,,,0.00,VWS V14.01,2014-07-11 08:06:00,
2014-07-11 04:11:00,63.1,16.2,29.26,NNE,22,2.7,2.7,16,0.00,,,0.00,VWS V14.01,2014-07-11 08:11:00,
2014-07-11 04:16:00,63.3,16.4,29.26,NNE,22,2.9,2.9,16,0.00,,,0.00,VWS V14.01,2014-07-11 08:16:00,
2014-07-11 04:21:00,63.5,16.5,29.26,NNE,22,2.5,2.5,16,0.00,,,0.00,VWS V14.01,2014-07-11 08:21:00,
2014-07-11 04:26:00,63.3,16.4,29.26,NNE,22,2.9,3.4,16,0.00,,,0.00,VWS V14.01,2014-07-11 08:26:00,
2014-07-11 04:31:00,63.5,16.5,29.26,NNE,22,2.5,2.5,16,0.00,,,0.00,VWS V14.01,2014-07-11 08:31:00,
2014-07-11 04:36:00,63.3,16.4,29.29,NNE,22,3.6,3.6,16,0.00,,,0.00,VWS V14.01,2014-07-11 08:36:00,
2014-07-11 04:41:00,63.1,16.2,29.29,NNE,22,2.2,2.2,16,0.00,,,0.00,VWS V14.01,2014-07-11 08:41:00,
2014-07-11 04:46:00,63.0,16.1,29.29,NNE,22,2.2,2.2,16,0.00,,,0.00,VWS V14.01,2014-07-11 08:46:00,
2014-07-11 04:51:00,63.0,16.1,29.26,NNE,22,1.6,2.0,16,0.00,,,0.00,VWS V14.01,2014-07-11 08:51:00,
2014-07-11 04:56:00,62.8,15.9,29.26,NNE,22,2.5,2.5,16,0.00,,,0.00,VWS V14.01,2014-07-11 08:56:00,
2014-07-11 05:01:00,62.8,15.9,29.26,NE,45,2.7,2.7,16,0.00,,,0.00,VWS V14.01,2014-07-11 09:01:00,
2014-07-11 05:06:00,62.8,15.9,29.23,NE,45,2.2,2.5,16,0.00,,,0.00,VWS V14.01,2014-07-11 09:06:00,
2014-07-11 05:11:00,62.6,15.8,29.23,NE,45,2.0,2.0,16,0.00,,,0.00,VWS V14.01,2014-07-11 09:11:00,
2014-07-11 05:16:00,62.6,15.8,29.23,NNE,22,2.2,2.2,16,0.00,,,0.00,VWS V14.01,2014-07-11 09:16:00,
2014-07-11 05:21:00,62.6,15.8,29.26,NNE,22,2.0,2.2,16,0.00,,,0.00,VWS V14.01,2014-07-11 09:21:00,
2014-07-11 05:26:00,62.6,15.8,29.26,NE,45,1.6,2.0,16,0.00,,,0.00,VWS V14.01,2014-07-11 09:26:00,
2014-07-11 05:31:00,62.2,15.5,29.26,NNE,22,2.2,2.2,16,0.00,,,0.00,VWS V14.01,2014-07-11 09:31:00,
2014-07-11 05:36:00,62.2,15.5,29.26,NNE,22,1.6,2.5,16,0.00,,,0.00,VWS V14.01,2014-07-11 09:36:00,
2014-07-11 05:40:00,62.2,15.5,29.26,NNE,22,2.5,2.7,16,0.00,,,0.00,VWS V14.01,2014-07-11 09:40:00,
2014-07-11 05:45:00,62.1,15.4,29.26,NE,45,1.6,2.0,16,0.00,,,0.00,VWS V14.01,2014-07-11 09:45:00,
2014-07-11 05:50:00,61.9,15.2,29.26,NE,45,1.6,2.2,16,0.00,,,0.00,VWS V14.01,2014-07-11 09:50:00,
2014-07-11 05:55:00,61.9,15.2,29.26,NNE,22,2.5,2.5,16,0.00,,,0.00,VWS V14.01,2014-07-11 09:55:00,
2014-07-11 06:00:00,61.9,15.2,29.26,NNE,22,2.0,2.2,16,0.00,,,0.00,VWS V14.01,2014-07-11 10:00:00,
2014-07-11 06:05:00,61.7,15.1,29.26,NNE,22,2.7,2.7,16,0.00,,,0.00,VWS V14.01,2014-07-11 10:05:00,
2014-07-11 06:10:00,61.7,15.1,29.26,NE,45,1.6,2.5,16,0.00,,,0.00,VWS V14.01,2014-07-11 10:10:00,
2014-07-11 06:15:00,61.5,14.9,29.26,NE,45,1.6,1.6,16,0.00,,,0.00,VWS V14.01,2014-07-11 10:15:00,
2014-07-11 06:20:00,61.5,14.9,29.26,NNE,22,2.0,2.5,16,0.00,,,0.00,VWS V14.01,2014-07-11 10:20:00,
2014-07-11 06:25:00,61.3,14.8,29.26,NE,45,2.0,2.0,16,0.00,,,0.00,VWS V14.01,2014-07-11 10:25:00,
2014-07-11 06:30:00,61.2,14.6,29.26,ENE,68,0.0,0.0,16,0.00,,,0.00,VWS V14.01,2014-07-11 10:30:00,
2014-07-11 06:35:00,61.2,14.6,29.26,NNE,22,0.0,0.0,16,0.00,,,0.00,VWS V14.01,2014-07-11 10:35:00,
2014-07-11 06:40:00,61.2,14.6,29.26,NE,45,1.6,2.2,16,0.00,,,0.00,VWS V14.01,2014-07-11 10:40:00,
2014-07-11 06:45:00,61.3,18.8,29.26,NE,45,2.0,2.5,19,0.00,,,0.00,VWS V14.01,2014-07-11 10:45:00,
2014-07-11 06:50:00,61.3,18.8,29.29,NNE,22,2.7,2.7,19,0.00,,,0.00,VWS V14.01,2014-07-11 10:50:00,
2014-07-11 06:55:00,61.5,18.9,29.29,NNE,22,2.7,3.1,19,0.00,,,0.00,VWS V14.01,2014-07-11 10:55:00,
2014-07-11 07:00:00,61.9,19.2,29.29,NNE,22,2.7,2.7,19,0.00,,,0.00,VWS V14.01,2014-07-11 11:00:00,
2014-07-11 07:05:00,62.1,19.3,29.29,NNE,22,1.1,1.3,19,0.00,,,0.00,VWS V14.01,2014-07-11 11:05:00,
2014-07-11 07:10:00,62.2,19.5,29.29,ENE,68,2.0,2.2,19,0.00,,,0.00,VWS V14.01,2014-07-11 11:10:00,
2014-07-11 07:15:00,63.1,19.0,29.29,ENE,68,0.0,0.0,18,0.00,,,0.00,VWS V14.01,2014-07-11 11:15:00,
2014-07-11 07:20:00,63.9,19.6,29.32,NNE,22,1.1,1.6,18,0.00,,,0.00,VWS V14.01,2014-07-11 11:20:00,
2014-07-11 07:25:00,64.4,20.0,29.32,ENE,68,0.0,0.0,18,0.00,,,0.00,VWS V14.01,2014-07-11 11:25:00,
2014-07-11 07:30:00,65.1,20.6,29.32,ENE,68,0.0,0.0,18,0.00,,,0.00,VWS V14.01,2014-07-11 11:30:00,
2014-07-11 07:35:00,65.8,16.9,29.32,ENE,68,0.0,0.0,15,0.00,,,0.00,VWS V14.01,2014-07-11 11:35:00,
2014-07-11 07:40:00,66.4,17.4,29.32,NE,45,2.0,2.5,15,0.00,,,0.00,VWS V14.01,2014-07-11 11:40:00,
2014-07-11 07:45:00,67.1,17.9,29.32,NE,45,1.6,3.4,15,0.00,,,0.00,VWS V14.01,2014-07-11 11:45:00,
2014-07-11 07:50:00,68.2,18.8,29.32,NE,45,1.3,2.0,15,0.00,,,0.00,VWS V14.01,2014-07-11 11:50:00,
2014-07-11 07:55:00,69.3,19.7,29.32,ESE,112,0.0,0.0,15,0.00,,,0.00,VWS V14.01,2014-07-11 11:55:00,
2014-07-11 08:00:00,70.0,18.6,29.32,NE,45,2.5,2.5,14,0.00,,,0.00,VWS V14.01,2014-07-11 12:00:00,
2014-07-11 08:05:00,70.2,18.8,29.32,ENE,68,2.0,3.1,14,0.00,,,0.00,VWS V14.01,2014-07-11 12:05:00,
2014-07-11 08:10:00,69.4,19.8,29.32,NE,45,3.8,3.8,15,0.00,,,0.00,VWS V14.01,2014-07-11 12:10:00,
2014-07-11 08:15:00,70.0,18.6,29.32,NE,45,1.6,2.0,14,0.00,,,0.00,VWS V14.01,2014-07-11 12:15:00,
2014-07-11 08:20:00,71.8,20.1,29.32,NE,45,2.5,2.9,14,0.00,,,0.00,VWS V14.01,2014-07-11 12:20:00,
2014-07-11 08:25:00,71.8,20.1,29.32,NE,45,3.6,4.0,14,0.00,,,0.00,VWS V14.01,2014-07-11 12:25:00,
2014-07-11 08:30:00,70.7,19.2,29.32,NNE,22,2.9,3.4,14,0.00,,,0.00,VWS V14.01,2014-07-11 12:30:00,
2014-07-11 08:35:00,70.5,19.1,29.29,ENE,68,3.1,3.1,14,0.00,,,0.00,VWS V14.01,2014-07-11 12:35:00,
2014-07-11 08:40:00,70.3,18.9,29.29,ENE,68,2.0,3.4,14,0.00,,,0.00,VWS V14.01,2014-07-11 12:40:00,
2014-07-11 08:45:00,70.3,18.9,29.29,NE,45,2.0,5.4,14,0.00,,,0.00,VWS V14.01,2014-07-11 12:45:00,
2014-07-11 08:50:00,70.5,19.1,29.32,NNE,22,1.3,1.3,14,0.00,,,0.00,VWS V14.01,2014-07-11 12:50:00,
2014-07-11 08:55:00,71.1,19.5,29.32,ENE,68,3.1,3.1,14,0.00,,,0.00,VWS V14.01,2014-07-11 12:55:00,
2014-07-11 09:00:00,71.4,19.8,29.32,ENE,68,2.2,2.2,14,0.00,,,0.00,VWS V14.01,2014-07-11 13:00:00,
2014-07-11 09:05:00,72.0,20.2,29.32,SSE,158,2.5,2.7,14,0.00,,,0.00,VWS V14.01,2014-07-11 13:05:00,
2014-07-11 09:10:00,73.4,19.6,29.32,NE,45,1.6,1.6,13,0.00,,,0.00,VWS V14.01,2014-07-11 13:10:00,
2014-07-11 09:15:00,75.6,21.3,29.32,NE,45,0.0,0.0,13,0.00,,,0.00,VWS V14.01,2014-07-11 13:15:00,
2014-07-11 09:20:00,77.0,22.4,29.32,NE,45,2.5,2.5,13,0.00,,,0.00,VWS V14.01,2014-07-11 13:20:00,
2014-07-11 09:25:00,78.3,23.4,29.32,East,90,1.6,2.7,13,0.00,,,0.00,VWS V14.01,2014-07-11 13:25:00,
2014-07-11 09:30:00,79.9,22.8,29.32,SE,135,0.0,0.0,12,0.00,,,0.00,VWS V14.01,2014-07-11 13:30:00,
2014-07-11 09:35:00,81.1,23.8,29.29,SW,225,0.0,1.6,12,0.00,,,0.00,VWS V14.01,2014-07-11 13:35:00,
2014-07-11 09:40:00,82.2,24.6,29.29,ENE,68,1.3,1.3,12,0.00,,,0.00,VWS V14.01,2014-07-11 13:40:00,
2014-07-11 09:45:00,82.9,23.1,29.29,NE,45,2.5,2.5,11,0.00,,,0.00,VWS V14.01,2014-07-11 13:45:00,
2014-07-11 09:50:00,83.1,23.2,29.32,NE,45,2.0,2.0,11,0.00,,,0.00,VWS V14.01,2014-07-11 13:50:00,
2014-07-11 09:55:00,83.5,23.5,29.32,South,180,0.0,0.0,11,0.00,,,0.00,VWS V14.01,2014-07-11 13:55:00,
2014-07-11 10:00:00,84.9,24.6,29.32,South,180,2.0,2.0,11,0.00,,,0.00,VWS V14.01,2014-07-11 14:00:00,
2014-07-11 10:05:00,85.3,24.9,29.32,ENE,68,2.5,2.5,11,0.00,,,0.00,VWS V14.01,2014-07-11 14:05:00,
2014-07-11 10:10:00,86.2,25.6,29.32,East,90,2.7,2.7,11,0.00,,,0.00,VWS V14.01,2014-07-11 14:10:00,
2014-07-11 10:15:00,85.3,24.9,29.32,South,180,4.3,4.9,11,0.00,,,0.00,VWS V14.01,2014-07-11 14:15:00,
2014-07-11 10:20:00,85.3,24.9,29.32,SSW,202,1.1,3.6,11,0.00,,,0.00,VWS V14.01,2014-07-11 14:20:00,
2014-07-11 10:25:00,86.0,25.4,29.32,South,180,5.4,5.4,11,0.00,,,0.00,VWS V14.01,2014-07-11 14:25:00,
2014-07-11 10:30:00,86.4,25.7,29.32,NE,45,2.5,2.5,11,0.00,,,0.00,VWS V14.01,2014-07-11 14:30:00,
2014-07-11 10:35:00,85.6,25.2,29.32,South,180,2.0,3.1,11,0.00,,,0.00,VWS V14.01,2014-07-11 14:35:00,
2014-07-11 10:40:00,86.9,26.1,29.32,ESE,112,1.6,2.2,11,0.00,,,0.00,VWS V14.01,2014-07-11 14:40:00,
2014-07-11 10:45:00,86.4,25.7,29.32,NE,45,2.5,2.5,11,0.00,,,0.00,VWS V14.01,2014-07-11 14:45:00,
2014-07-11 10:50:00,86.9,26.1,29.32,SE,135,1.6,1.6,11,0.00,,,0.00,VWS V14.01,2014-07-11 14:50:00,
2014-07-11 10:55:00,86.4,25.7,29.32,South,180,3.4,4.9,11,0.00,,,0.00,VWS V14.01,2014-07-11 14:55:00,
2014-07-11 11:00:00,86.0,25.4,29.32,South,180,2.2,2.7,11,0.00,,,0.00,VWS V14.01,2014-07-11 15:00:00,
2014-07-11 11:05:00,84.2,24.0,29.32,NNE,22,1.6,1.6,11,0.00,,,0.00,VWS V14.01,2014-07-11 15:05:00,
2014-07-11 11:10:00,85.6,25.2,29.32,ESE,112,1.1,1.6,11,0.00,,,0.00,VWS V14.01,2014-07-11 15:10:00,
2014-07-11 11:15:00,85.1,24.7,29.32,SSE,158,4.3,4.3,11,0.00,,,0.00,VWS V14.01,2014-07-11 15:15:00,
2014-07-11 11:20:00,84.0,23.9,29.32,South,180,2.2,2.7,11,0.00,,,0.00,VWS V14.01,2014-07-11 15:20:00,
2014-07-11 11:25:00,83.8,23.8,29.32,SSW,202,3.6,3.6,11,0.00,,,0.00,VWS V14.01,2014-07-11 15:25:00,
2014-07-11 11:30:00,84.0,23.9,29.32,SSW,202,2.5,2.5,11,0.00,,,0.00,VWS V14.01,2014-07-11 15:30:00,
2014-07-11 11:35:00,84.0,23.9,29.32,NNE,22,0.0,0.0,11,0.00,,,0.00,VWS V14.01,2014-07-11 15:35:00,
2014-07-11 11:40:00,83.7,23.6,29.32,North,0,1.3,2.0,11,0.00,,,0.00,VWS V14.01,2014-07-11 15:40:00,
2014-07-11 11:45:00,83.1,23.2,29.32,ENE,68,2.5,2.7,11,0.00,,,0.00,VWS V14.01,2014-07-11 15:45:00,
2014-07-11 11:50:00,83.8,23.8,29.32,ESE,112,2.0,2.7,11,0.00,,,0.00,VWS V14.01,2014-07-11 15:50:00,
2014-07-11 11:55:00,84.2,24.0,29.32,SSE,158,2.0,2.0,11,0.00,,,0.00,VWS V14.01,2014-07-11 15:55:00,
2014-07-11 12:00:00,85.1,24.7,29.32,NE,45,0.0,0.0,11,0.00,,,0.00,VWS V14.01,2014-07-11 16:00:00,
2014-07-11 12:05:00,86.5,25.9,29.32,SE,135,3.4,3.4,11,0.00,,,0.00,VWS V14.01,2014-07-11 16:05:00,
2014-07-11 12:10:00,86.9,26.1,29.32,SSE,158,2.7,3.8,11,0.00,,,0.00,VWS V14.01,2014-07-11 16:10:00,
2014-07-11 12:15:00,86.7,26.0,29.32,SE,135,1.6,2.2,11,0.00,,,0.00,VWS V14.01,2014-07-11 16:15:00,
2014-07-11 12:20:00,86.4,25.7,29.32,North,0,2.0,2.5,11,0.00,,,0.00,VWS V14.01,2014-07-11 16:20:00,
2014-07-11 12:25:00,86.5,25.9,29.32,WSW,248,2.9,2.9,11,0.00,,,0.00,VWS V14.01,2014-07-11 16:25:00,
2014-07-11 12:30:00,87.6,26.7,29.32,SW,225,2.5,2.7,11,0.00,,,0.00,VWS V14.01,2014-07-11 16:30:00,
2014-07-11 12:35:00,86.9,26.1,29.32,SW,225,2.0,3.1,11,0.00,,,0.00,VWS V14.01,2014-07-11 16:35:00,
2014-07-11 12:40:00,87.8,24.5,29.32,NE,45,2.2,2.2,10,0.00,,,0.00,VWS V14.01,2014-07-11 16:40:00,
2014-07-11 12:45:00,86.0,25.4,29.32,South,180,1.3,1.3,11,0.00,,,0.00,VWS V14.01,2014-07-11 16:45:00,
2014-07-11 12:50:00,84.2,24.0,29.32,WSW,248,0.0,0.0,11,0.00,,,0.00,VWS V14.01,2014-07-11 16:50:00,
2014-07-11 12:55:00,85.6,25.2,29.32,SSW,202,2.5,3.1,11,0.00,,,0.00,VWS V14.01,2014-07-11 16:55:00,
2014-07-11 13:00:00,84.6,24.3,29.32,NE,45,2.5,2.5,11,0.00,,,0.00,VWS V14.01,2014-07-11 17:00:00,
2014-07-11 13:05:00,85.1,24.7,29.32,ESE,112,2.7,2.7,11,0.00,,,0.00,VWS V14.01,2014-07-11 17:05:00,
2014-07-11 13:10:00,84.7,24.5,29.32,South,180,3.1,3.1,11,0.00,,,0.00,VWS V14.01,2014-07-11 17:10:00,
2014-07-11 13:15:00,83.8,23.8,29.32,SSW,202,0.0,0.9,11,0.00,,,0.00,VWS V14.01,2014-07-11 17:15:00,
2014-07-11 13:20:00,83.1,23.2,29.32,SE,135,2.9,2.9,11,0.00,,,0.00,VWS V14.01,2014-07-11 17:20:00,
2014-07-11 13:25:00,85.1,24.7,29.32,NNE,22,3.4,3.4,11,0.00,,,0.00,VWS V14.01,2014-07-11 17:25:00,
2014-07-11 13:30:00,87.1,26.3,29.32,ENE,68,3.4,3.4,11,0.00,,,0.00,VWS V14.01,2014-07-11 17:30:00,
2014-07-11 13:35:00,88.7,25.2,29.32,NE,45,1.1,2.0,10,0.00,,,0.00,VWS V14.01,2014-07-11 17:35:00,
2014-07-11 13:40:00,89.2,25.6,29.32,NNW,338,1.3,1.3,10,0.00,,,0.00,VWS V14.01,2014-07-11 17:40:00,
2014-07-11 13:45:00,91.8,25.0,29.32,SW,225,2.7,2.7,9,0.00,,,0.00,VWS V14.01,2014-07-11 17:45:00,
2014-07-11 13:50:00,93.9,26.6,29.32,SW,225,0.9,0.9,9,0.00,,,0.00,VWS V14.01,2014-07-11 17:50:00,
2014-07-11 13:55:00,95.7,27.9,29.32,West,270,2.7,2.7,9,0.00,,,0.00,VWS V14.01,2014-07-11 17:55:00,
2014-07-11 14:00:00,96.4,33.4,29.32,NNE,22,2.2,2.2,11,0.00,,,0.00,VWS V14.01,2014-07-11 18:00:00,
2014-07-11 14:05:00,94.8,32.2,29.32,NE,45,3.4,3.4,11,0.00,,,0.00,VWS V14.01,2014-07-11 18:05:00,
2014-07-11 14:10:00,90.9,31.3,29.32,South,180,1.1,1.3,12,0.00,,,0.00,VWS V14.01,2014-07-11 18:10:00,
2014-07-11 14:15:00,89.2,25.6,29.32,SSW,202,0.0,0.0,10,0.00,,,0.00,VWS V14.01,2014-07-11 18:15:00,
2014-07-11 14:20:00,90.7,26.7,29.32,ENE,68,2.7,2.7,10,0.00,,,0.00,VWS V14.01,2014-07-11 18:20:00,
2014-07-11 14:25:00,92.3,25.4,29.32,ESE,112,1.6,1.6,9,0.00,,,0.00,VWS V14.01,2014-07-11 18:25:00,
2014-07-11 14:30:00,94.8,32.2,29.32,NNE,22,2.5,2.5,11,0.00,,,0.00,VWS V14.01,2014-07-11 18:30:00,
2014-07-11 14:35:00,94.6,32.0,29.32,NNE,22,3.1,4.3,11,0.00,,,0.00,VWS V14.01,2014-07-11 18:35:00,
2014-07-11 14:40:00,96.1,33.2,29.32,WSW,248,1.6,1.6,11,0.00,,,0.00,VWS V14.01,2014-07-11 18:40:00,
2014-07-11 14:45:00,95.7,32.9,29.32,SSE,158,3.4,3.4,11,0.00,,,0.00,VWS V14.01,2014-07-11 18:45:00,
2014-07-11 14:50:00,97.0,33.8,29.29,ENE,68,2.5,2.5,11,0.00,,,0.00,VWS V14.01,2014-07-11 18:50:00,